Time;durP1;ratioP1;P1;durP2;ratioP2;P2;SDS_P1;SDS_P2;PMS_P1;PMS_P2;Temp;Humidity;BMP_temperature;BMP_pressure;BME280_temperature;BME280_humidity;BME280_pressure;Samples;Min_cycle;Max_cycle;Signal;HPM_P1;HPM_P2
2023/10/02 00:01:52;;;;;;;14.70;6.15;;;17.70;99.90;;;;;;4977818;28;20382;-82
2023/10/02 00:04:24;;;;;;;12.45;5.88;;;17.70;99.90;;;;;;4946544;28;20489;-82
2023/10/02 00:07:05;;;;;;;14.07;6.40;;;17.60;99.90;;;;;;4977611;28;20110;-82
2023/10/02 00:09:36;;;;;;;15.45;6.07;;;17.60;99.90;;;;;;4978035;28;20043;-82
2023/10/02 00:12:11;;;;;;;13.35;6.03;;;17.60;99.90;;;;;;4978847;28;20042;-83
2023/10/02 00:14:38;;;;;;;14.30;6.03;;;17.60;99.90;;;;;;4963870;28;20082;-82
2023/10/02 00:17:08;;;;;;;14.27;6.30;;;17.60;99.90;;;;;;4979197;28;20039;-82
2023/10/02 00:19:57;;;;;;;12.93;5.78;;;17.60;99.90;;;;;;4963338;28;20047;-82
2023/10/02 00:22:43;;;;;;;13.63;6.40;;;17.60;99.90;;;;;;4995123;28;20039;-82
2023/10/02 00:25:09;;;;;;;14.20;6.25;;;17.60;99.90;;;;;;4961040;28;20046;-82
2023/10/02 00:27:38;;;;;;;14.82;6.47;;;17.60;99.90;;;;;;4948973;28;20064;-82
2023/10/02 00:30:07;;;;;;;16.38;6.35;;;17.50;99.90;;;;;;4975593;28;20083;-82
2023/10/02 00:32:34;;;;;;;14.27;6.45;;;17.50;99.90;;;;;;4991271;28;20138;-82
2023/10/02 00:35:02;;;;;;;12.98;6.22;;;17.50;99.90;;;;;;4978486;28;20043;-82
2023/10/02 00:37:47;;;;;;;15.95;7.53;;;17.50;99.90;;;;;;4977851;28;20046;-82
2023/10/02 00:40:21;;;;;;;13.95;6.28;;;17.50;99.90;;;;;;4976969;28;20086;-82
2023/10/02 00:42:56;;;;;;;14.38;6.85;;;17.50;99.90;;;;;;4978767;28;20051;-82
2023/10/02 00:45:24;;;;;;;14.45;6.03;;;17.50;99.90;;;;;;4977230;28;20043;-82
2023/10/02 00:47:51;;;;;;;16.23;6.70;;;17.50;99.90;;;;;;4962334;28;20051;-82
2023/10/02 00:50:24;;;;;;;13.93;6.78;;;17.50;99.90;;;;;;4959893;28;20051;-82
2023/10/02 00:52:55;;;;;;;14.73;6.93;;;17.40;99.90;;;;;;4979695;28;20273;-82
2023/10/02 00:55:26;;;;;;;13.27;5.72;;;17.40;99.90;;;;;;4978147;28;20089;-82
2023/10/02 00:57:56;;;;;;;14.30;6.57;;;17.40;99.90;;;;;;4978886;28;20041;-82
2023/10/02 01:00:35;;;;;;;16.30;7.18;;;17.40;99.90;;;;;;4976681;28;20594;-82
2023/10/02 01:03:05;;;;;;;15.65;6.80;;;17.40;99.90;;;;;;4946435;28;20039;-82
2023/10/02 01:05:42;;;;;;;17.33;7.82;;;17.40;99.90;;;;;;4944019;28;20114;-82
2023/10/02 01:08:25;;;;;;;14.90;7.20;;;17.40;99.90;;;;;;4960278;28;20177;-82
2023/10/02 01:11:13;;;;;;;16.40;7.30;;;17.30;99.90;;;;;;4977876;28;20062;-82
2023/10/02 01:13:38;;;;;;;15.88;6.82;;;17.30;99.90;;;;;;4978883;28;20054;-82
2023/10/02 01:16:08;;;;;;;14.80;7.38;;;17.30;99.90;;;;;;4962205;28;20035;-82
2023/10/02 01:18:36;;;;;;;14.40;7.00;;;17.30;99.90;;;;;;4979605;28;20046;-82
2023/10/02 01:21:09;;;;;;;15.02;7.35;;;17.20;99.90;;;;;;4994615;28;20036;-82
2023/10/02 01:23:44;;;;;;;15.45;7.60;;;17.20;99.90;;;;;;4961906;28;20079;-82
2023/10/02 01:26:10;;;;;;;16.30;7.15;;;17.20;99.90;;;;;;4981051;28;20109;-82
2023/10/02 01:28:49;;;;;;;15.50;7.25;;;17.20;99.90;;;;;;4998220;28;20039;-82
2023/10/02 01:31:35;;;;;;;16.85;7.70;;;17.20;99.90;;;;;;4983058;28;20133;-82
2023/10/02 01:34:03;;;;;;;15.63;7.43;;;17.20;99.90;;;;;;4983311;28;20481;-82
2023/10/02 01:36:31;;;;;;;17.42;7.95;;;17.20;99.90;;;;;;4982195;28;20047;-82
2023/10/02 01:38:59;;;;;;;15.30;7.88;;;17.20;99.90;;;;;;4948691;28;20061;-82
2023/10/02 01:41:28;;;;;;;15.25;7.45;;;17.20;99.90;;;;;;4948088;28;20083;-82
2023/10/02 01:43:57;;;;;;;14.63;7.13;;;17.20;99.90;;;;;;4950187;29;20043;-82
2023/10/02 01:46:25;;;;;;;16.73;7.97;;;17.10;99.90;;;;;;4980167;28;20043;-82
2023/10/02 01:48:51;;;;;;;16.38;7.93;;;17.20;99.90;;;;;;4981508;28;20150;-82
2023/10/02 01:51:27;;;;;;;17.23;7.88;;;17.10;99.90;;;;;;4979723;28;20121;-82
2023/10/02 01:53:55;;;;;;;15.95;7.40;;;17.10;99.90;;;;;;4982018;28;20031;-82
2023/10/02 01:56:32;;;;;;;15.98;7.63;;;17.10;99.90;;;;;;4995769;28;20468;-82
2023/10/02 01:59:14;;;;;;;14.98;7.60;;;17.10;99.90;;;;;;4947951;28;20535;-82
2023/10/02 02:01:54;;;;;;;15.60;7.03;;;17.10;99.90;;;;;;4962737;28;20197;-82
2023/10/02 02:04:28;;;;;;;16.15;7.70;;;17.10;99.90;;;;;;4980073;28;20071;-82
2023/10/02 02:06:56;;;;;;;16.15;7.38;;;17.10;99.90;;;;;;4980437;28;20133;-83
2023/10/02 02:09:35;;;;;;;14.35;7.30;;;17.10;99.90;;;;;;4979746;28;20050;-82
2023/10/02 02:12:07;;;;;;;15.43;7.38;;;17.10;99.90;;;;;;4962759;28;20039;-82
2023/10/02 02:14:50;;;;;;;19.05;8.45;;;17.00;99.90;;;;;;4965361;28;20828;-82
2023/10/02 02:17:18;;;;;;;16.58;8.02;;;17.10;99.90;;;;;;4996286;28;20493;-83
2023/10/02 02:19:48;;;;;;;14.98;7.35;;;17.00;99.90;;;;;;4948361;28;20196;-82
2023/10/02 02:22:36;;;;;;;15.15;7.57;;;17.00;99.90;;;;;;4965427;28;20110;-82
2023/10/02 02:25:04;;;;;;;15.57;7.60;;;17.00;99.90;;;;;;4996164;28;20375;-83
2023/10/02 02:27:30;;;;;;;16.70;7.55;;;16.90;99.90;;;;;;4981931;28;20304;-82
2023/10/02 02:29:58;;;;;;;15.60;7.68;;;16.90;99.90;;;;;;4961811;28;20262;-82
2023/10/02 02:35:21;;;;;;;17.83;7.57;;;16.90;99.90;;;;;;4980527;28;20715;-82
2023/10/02 02:37:49;;;;;;;14.95;7.65;;;16.90;99.90;;;;;;4964054;28;20035;-82
2023/10/02 02:40:27;;;;;;;15.85;8.05;;;16.80;99.90;;;;;;4947482;29;20055;-82
2023/10/02 02:42:54;;;;;;;15.48;7.10;;;16.80;99.90;;;;;;4979473;28;20050;-82
2023/10/02 02:45:28;;;;;;;15.90;7.82;;;16.80;99.90;;;;;;4980454;28;20078;-82
2023/10/02 02:48:06;;;;;;;16.73;8.35;;;16.80;99.90;;;;;;4981239;28;20113;-82
2023/10/02 02:50:44;;;;;;;15.57;7.32;;;16.70;99.90;;;;;;4947777;28;20171;-82
2023/10/02 02:53:46;;;;;;;17.10;8.20;;;16.70;99.90;;;;;;4962697;28;20047;-82
2023/10/02 02:56:18;;;;;;;16.55;7.68;;;16.70;99.90;;;;;;4948062;28;20042;-82
2023/10/02 02:58:52;;;;;;;15.98;7.13;;;16.70;99.90;;;;;;4946740;29;20039;-82
2023/10/02 03:01:23;;;;;;;13.70;7.28;;;16.70;99.90;;;;;;4946850;28;20046;-82
2023/10/02 03:03:50;;;;;;;17.42;7.45;;;16.70;99.90;;;;;;4962761;28;20082;-82
2023/10/02 03:06:23;;;;;;;15.30;7.32;;;16.70;99.90;;;;;;4994171;28;20109;-82
2023/10/02 03:08:52;;;;;;;16.98;8.52;;;16.60;99.90;;;;;;4995558;28;20043;-82
2023/10/02 03:11:19;;;;;;;14.95;7.60;;;16.70;99.90;;;;;;4934157;28;20075;-82
2023/10/02 03:13:49;;;;;;;15.73;7.55;;;17.80;99.90;;;;;;4981869;28;20039;-82
2023/10/02 03:16:28;;;;;;;16.55;8.57;;;16.70;99.90;;;;;;4979192;28;20071;-82
2023/10/02 03:18:54;;;;;;;17.40;8.15;;;16.60;99.90;;;;;;4979146;28;20043;-82
2023/10/02 03:21:24;;;;;;;18.10;8.27;;;16.70;99.90;;;;;;4980574;28;20390;-82
2023/10/02 03:23:54;;;;;;;16.20;8.07;;;16.70;99.90;;;;;;4993503;28;20047;-82
2023/10/02 03:29:04;;;;;;;15.07;7.20;;;16.60;99.90;;;;;;4993814;28;20295;-82
2023/10/02 03:31:37;;;;;;;16.08;7.80;;;16.60;99.90;;;;;;4946681;28;20039;-82
2023/10/02 03:34:25;;;;;;;15.30;8.23;;;16.60;99.90;;;;;;4995526;28;20035;-82
2023/10/02 03:42:25;;;;;;;17.70;8.45;;;16.60;99.90;;;;;;4979874;28;20047;-82
2023/10/02 03:44:56;;;;;;;20.40;8.63;;;16.50;99.90;;;;;;4946356;28;20081;-82
2023/10/02 03:47:22;;;;;;;16.58;8.02;;;16.50;99.90;;;;;;4977131;28;20126;-82
2023/10/02 03:49:49;;;;;;;16.05;8.27;;;16.50;99.90;;;;;;4946258;28;20035;-82
2023/10/02 03:52:16;;;;;;;17.10;8.55;;;16.50;99.90;;;;;;4947742;28;20066;-82
2023/10/02 03:54:45;;;;;;;17.80;8.15;;;16.40;99.90;;;;;;4962257;28;20094;-83
2023/10/02 04:00:18;;;;;;;17.30;8.30;;;16.50;99.90;;;;;;4976353;28;20051;-82
2023/10/02 04:02:46;;;;;;;18.55;8.55;;;16.50;99.90;;;;;;4949342;28;20047;-82
2023/10/02 04:05:30;;;;;;;17.35;8.60;;;16.50;99.90;;;;;;4976724;28;20043;-82
2023/10/02 04:08:12;;;;;;;17.38;8.68;;;16.50;99.90;;;;;;4948166;28;20043;-82
2023/10/02 04:10:51;;;;;;;16.42;8.38;;;16.50;99.90;;;;;;4992995;28;20042;-82
2023/10/02 04:13:20;;;;;;;18.23;9.25;;;16.50;99.90;;;;;;4946778;28;20564;-82
2023/10/02 04:15:47;;;;;;;15.68;8.10;;;16.50;99.90;;;;;;4994361;28;20038;-82
2023/10/02 04:18:45;;;;;;;16.15;7.88;;;16.50;99.90;;;;;;4961868;28;20035;-82
2023/10/02 04:21:05;;;;;;;17.63;8.60;;;16.40;99.90;;;;;;4961903;28;20047;-82
2023/10/02 04:23:38;;;;;;;17.55;9.07;;;16.50;99.90;;;;;;4947011;29;20051;-82
2023/10/02 04:26:05;;;;;;;17.33;8.75;;;16.40;99.90;;;;;;4976444;28;20126;-82
2023/10/02 04:28:47;;;;;;;17.67;8.68;;;16.40;99.90;;;;;;4959129;28;20497;-82
2023/10/02 04:31:20;;;;;;;16.45;8.40;;;16.40;99.90;;;;;;4976497;28;20043;-82
2023/10/02 04:33:53;;;;;;;18.98;8.55;;;16.40;99.90;;;;;;4960420;28;20047;-82
2023/10/02 04:36:30;;;;;;;18.88;8.48;;;16.40;99.90;;;;;;4959722;28;20047;-82
2023/10/02 04:38:57;;;;;;;18.20;8.90;;;16.40;99.90;;;;;;4960899;28;20047;-84
2023/10/02 04:41:26;;;;;;;16.27;8.45;;;16.30;99.90;;;;;;4958723;28;20051;-82
2023/10/02 04:43:57;;;;;;;16.08;8.10;;;16.30;99.90;;;;;;4958886;28;20058;-82
2023/10/02 04:46:28;;;;;;;17.45;8.48;;;16.30;99.90;;;;;;4943205;28;20055;-82
2023/10/02 04:48:59;;;;;;;17.35;8.07;;;16.30;99.90;;;;;;4976376;28;20054;-82
2023/10/02 04:51:30;;;;;;;16.63;8.65;;;16.30;99.90;;;;;;4961352;28;20039;-82
2023/10/02 04:54:05;;;;;;;15.68;8.00;;;16.30;99.90;;;;;;4978617;28;20457;-83
2023/10/02 04:56:30;;;;;;;17.20;8.52;;;16.30;99.90;;;;;;4958241;28;20035;-82
2023/10/02 04:59:02;;;;;;;16.38;8.60;;;16.30;99.90;;;;;;4980862;28;20093;-82
2023/10/02 05:01:41;;;;;;;17.70;8.20;;;16.30;99.90;;;;;;4944312;28;20043;-82
2023/10/02 05:04:08;;;;;;;17.92;8.68;;;16.30;99.90;;;;;;4959539;28;20601;-82
2023/10/02 05:06:52;;;;;;;18.50;8.80;;;16.30;99.90;;;;;;4972761;28;20077;-82
2023/10/02 05:09:21;;;;;;;16.10;8.23;;;16.30;99.90;;;;;;4976307;28;20118;-83
2023/10/02 05:11:52;;;;;;;15.93;8.05;;;16.30;99.90;;;;;;4973664;28;20283;-82
2023/10/02 05:14:55;;;;;;;17.13;8.98;;;16.40;99.90;;;;;;4993507;28;20043;-82
2023/10/02 05:17:17;;;;;;;18.05;8.60;;;16.30;99.90;;;;;;4940785;28;20090;-82
2023/10/02 05:19:56;;;;;;;16.95;8.15;;;16.40;99.90;;;;;;4957809;28;20032;-83
2023/10/02 05:22:27;;;;;;;18.08;8.10;;;16.40;99.90;;;;;;4954005;28;20849;-82
2023/10/02 05:25:04;;;;;;;17.77;9.23;;;16.30;99.90;;;;;;4956525;28;20043;-82
2023/10/02 05:27:36;;;;;;;17.20;8.38;;;16.30;99.90;;;;;;4982364;28;20070;-81
2023/10/02 05:30:12;;;;;;;16.00;8.23;;;16.30;99.90;;;;;;4981007;28;20111;-82
2023/10/02 05:32:39;;;;;;;16.15;8.27;;;16.30;99.90;;;;;;4982558;28;20039;-82
2023/10/02 05:37:40;;;;;;;18.00;8.90;;;16.30;99.90;;;;;;4950094;29;20049;-82
2023/10/02 05:45:47;;;;;;;18.88;8.75;;;16.30;99.90;;;;;;4982136;28;20043;-81
2023/10/02 05:51:08;;;;;;;15.80;8.00;;;16.30;99.90;;;;;;4948418;29;20055;-82
2023/10/02 05:53:37;;;;;;;15.77;8.68;;;16.30;99.90;;;;;;4982529;28;20505;-81
2023/10/02 05:56:12;;;;;;;16.92;8.70;;;16.30;99.90;;;;;;4982369;28;20038;-82
2023/10/02 05:58:44;;;;;;;15.95;8.10;;;16.30;99.90;;;;;;4950318;29;20043;-82
2023/10/02 06:01:26;;;;;;;16.73;8.27;;;16.30;99.90;;;;;;4980851;28;20043;-82
2023/10/02 06:04:00;;;;;;;18.50;9.52;;;16.30;99.90;;;;;;4971260;28;20505;-81
2023/10/02 06:06:28;;;;;;;22.75;9.73;;;16.30;99.90;;;;;;4965990;28;20046;-82
2023/10/02 06:09:00;;;;;;;15.98;8.10;;;16.30;99.90;;;;;;4982340;28;20381;-82
2023/10/02 06:11:26;;;;;;;18.97;9.27;;;16.40;99.90;;;;;;4967626;28;20035;-82
2023/10/02 06:13:57;;;;;;;17.33;8.63;;;16.40;99.90;;;;;;4997892;28;20050;-82
2023/10/02 06:16:29;;;;;;;18.60;8.48;;;16.40;99.90;;;;;;4998836;28;20042;-81
2023/10/02 06:19:02;;;;;;;17.00;8.50;;;16.40;99.90;;;;;;4985452;28;20078;-82
2023/10/02 06:21:32;;;;;;;16.42;8.02;;;16.50;99.90;;;;;;4969256;28;20039;-82
2023/10/02 06:24:00;;;;;;;16.17;8.40;;;16.40;99.90;;;;;;4952372;29;20220;-82
2023/10/02 06:26:29;;;;;;;17.50;7.88;;;16.50;99.90;;;;;;4969411;28;20374;-82
2023/10/02 06:29:16;;;;;;;15.55;7.90;;;16.50;99.90;;;;;;4985435;28;20390;-82
2023/10/02 06:31:42;;;;;;;15.50;8.20;;;16.50;99.90;;;;;;4985441;28;20054;-82
2023/10/02 06:34:11;;;;;;;19.20;9.07;;;16.50;99.90;;;;;;4984464;28;20043;-81
2023/10/02 06:36:47;;;;;;;17.02;8.30;;;16.50;99.90;;;;;;4984941;28;20127;-82
2023/10/02 06:39:21;;;;;;;17.08;8.25;;;16.60;99.90;;;;;;4999842;28;20497;-82
2023/10/02 06:41:47;;;;;;;16.70;8.75;;;16.50;99.90;;;;;;4967791;28;20047;-82
2023/10/02 06:44:16;;;;;;;16.95;8.75;;;16.50;99.90;;;;;;4983009;28;20077;-82
2023/10/02 06:46:53;;;;;;;17.20;8.10;;;16.60;99.90;;;;;;4968283;28;20039;-82
2023/10/02 06:49:23;;;;;;;17.45;9.20;;;16.50;99.90;;;;;;4984765;28;20106;-81
2023/10/02 06:51:49;;;;;;;17.75;8.30;;;16.60;99.90;;;;;;4984776;28;20102;-82
2023/10/02 06:54:21;;;;;;;18.52;8.80;;;16.60;99.90;;;;;;4983816;28;20118;-81
2023/10/02 06:56:47;;;;;;;17.23;9.00;;;16.60;99.90;;;;;;4984806;28;20035;-81
2023/10/02 06:59:13;;;;;;;16.90;9.07;;;16.60;99.90;;;;;;4984439;28;20129;-81
2023/10/02 07:04:34;;;;;;;17.60;8.13;;;16.60;99.90;;;;;;4984738;28;20075;-81
2023/10/02 07:07:03;;;;;;;15.80;8.75;;;16.60;99.90;;;;;;4984686;28;20122;-82
2023/10/02 07:09:36;;;;;;;17.38;9.05;;;16.70;99.90;;;;;;4984386;28;20134;-82
2023/10/02 07:12:09;;;;;;;17.90;8.88;;;16.70;99.90;;;;;;4951268;29;20120;-82
2023/10/02 07:14:39;;;;;;;15.98;8.43;;;16.80;99.90;;;;;;5000148;28;20050;-82
2023/10/02 07:17:17;;;;;;;18.25;9.23;;;16.90;99.90;;;;;;4968345;28;20040;-81
2023/10/02 07:19:50;;;;;;;16.45;8.35;;;16.90;99.90;;;;;;4984513;28;20114;-82
2023/10/02 07:22:18;;;;;;;17.95;8.55;;;17.00;99.90;;;;;;4981316;28;20050;-82
2023/10/02 07:24:47;;;;;;;17.77;9.27;;;17.00;99.90;;;;;;4983208;28;20107;-82
2023/10/02 07:27:34;;;;;;;18.90;9.20;;;17.10;99.90;;;;;;4984054;28;20047;-81
2023/10/02 07:30:02;;;;;;;19.08;9.50;;;17.10;99.90;;;;;;4983911;28;20055;-82
2023/10/02 07:32:34;;;;;;;18.58;8.73;;;17.20;99.90;;;;;;4950743;29;20098;-81
2023/10/02 07:35:10;;;;;;;16.85;8.75;;;17.30;99.90;;;;;;4983828;28;20051;-82
2023/10/02 07:37:36;;;;;;;16.17;8.57;;;17.30;99.90;;;;;;4984127;28;20070;-82
2023/10/02 07:40:02;;;;;;;17.23;8.88;;;17.40;99.90;;;;;;4983643;28;20082;-81
2023/10/02 07:42:31;;;;;;;18.17;9.43;;;17.50;99.90;;;;;;4984237;28;20075;-82
2023/10/02 07:45:24;;;;;;;20.05;9.27;;;17.50;99.90;;;;;;4982316;28;20490;-82
2023/10/02 07:48:08;;;;;;;;;;;17.60;99.90;;;;;;5000977;28;20047;-82
2023/10/02 07:50:41;;;;;;;;;;;17.70;99.90;;;;;;4983879;28;20376;-81
2023/10/02 07:53:08;;;;;;;17.30;8.43;;;17.80;99.90;;;;;;4966929;28;19925;-81
2023/10/02 07:55:35;;;;;;;15.93;8.18;;;17.90;99.90;;;;;;4951146;29;20058;-81
2023/10/02 07:58:01;;;;;;;17.15;8.75;;;18.00;99.90;;;;;;4983682;28;20054;-82
2023/10/02 08:00:37;;;;;;;18.35;8.73;;;18.00;99.90;;;;;;4973151;28;20048;-82
2023/10/02 08:03:04;;;;;;;17.67;9.02;;;18.10;99.90;;;;;;4983650;28;20086;-82
2023/10/02 08:05:38;;;;;;;17.58;8.93;;;18.20;99.90;;;;;;4965426;28;20049;-82
2023/10/02 08:08:10;;;;;;;18.38;8.95;;;18.20;99.90;;;;;;4966875;28;20568;-82
2023/10/02 08:10:49;;;;;;;20.95;10.50;;;18.30;99.90;;;;;;4999840;28;20069;-82
2023/10/02 08:13:32;;;;;;;16.60;8.45;;;18.30;99.90;;;;;;4983733;28;20270;-82
2023/10/02 08:16:15;;;;;;;19.92;9.25;;;18.40;99.90;;;;;;4950048;28;20179;-82
2023/10/02 08:19:10;;;;;;;17.92;9.38;;;18.40;99.90;;;;;;4951003;29;20039;-82
2023/10/02 08:21:36;;;;;;;18.58;8.93;;;18.40;99.90;;;;;;4966913;28;20039;-82
2023/10/02 08:24:03;;;;;;;19.13;9.20;;;18.50;99.90;;;;;;4967429;28;20046;-82
2023/10/02 08:26:40;;;;;;;16.35;8.23;;;18.60;99.90;;;;;;4966105;28;20035;-82
2023/10/02 08:29:15;;;;;;;17.90;9.48;;;18.60;99.90;;;;;;4983044;28;20047;-82
2023/10/02 08:31:49;;;;;;;17.98;9.35;;;18.70;99.90;;;;;;4983157;28;20507;-82
2023/10/02 08:34:19;;;;;;;19.73;9.63;;;18.70;99.90;;;;;;4966736;28;20044;-82
2023/10/02 08:37:04;;;;;;;21.20;10.65;;;18.80;99.90;;;;;;4982229;28;20081;-82
2023/10/02 08:39:40;;;;;;;19.98;9.40;;;18.90;99.90;;;;;;4950469;28;20513;-82
2023/10/02 08:42:09;;;;;;;18.70;9.60;;;18.90;99.90;;;;;;4982992;28;20047;-82
2023/10/02 08:44:42;;;;;;;20.98;9.68;;;19.00;99.90;;;;;;4982839;28;20074;-82
2023/10/02 08:47:11;;;;;;;19.52;9.13;;;19.00;99.90;;;;;;4981946;28;20050;-82
2023/10/02 08:49:38;;;;;;;17.55;9.30;;;;;;;;;;4999078;28;20077;-82
2023/10/02 08:52:14;;;;;;;17.75;9.25;;;19.30;99.90;;;;;;4966777;28;20043;-82
2023/10/02 08:54:41;;;;;;;18.48;9.57;;;19.40;99.90;;;;;;4950122;29;20457;-82
2023/10/02 08:57:12;;;;;;;19.27;9.32;;;19.50;99.90;;;;;;4967036;28;20087;-82
2023/10/02 08:59:38;;;;;;;18.30;9.43;;;19.60;99.90;;;;;;4978404;28;20059;-82
2023/10/02 09:02:15;;;;;;;21.10;9.90;;;19.60;99.90;;;;;;4975425;28;20043;-82
2023/10/02 09:05:13;;;;;;;20.67;9.55;;;19.50;99.90;;;;;;4981850;28;20062;-82
2023/10/02 09:10:25;;;;;;;20.25;9.65;;;19.40;99.90;;;;;;4950348;29;20508;-82
2023/10/02 09:13:13;;;;;;;19.92;10.30;;;19.40;99.90;;;;;;4949766;29;20047;-82
2023/10/02 09:15:48;;;;;;;18.92;10.02;;;19.30;99.90;;;;;;4949227;29;20131;-82
2023/10/02 09:18:58;;;;;;;20.27;9.88;;;19.40;99.90;;;;;;4950211;28;20039;-83
2023/10/02 09:21:21;;;;;;;22.33;10.65;;;19.60;99.90;;;;;;4982082;28;20046;-82
2023/10/02 09:23:51;;;;;;;20.40;10.75;;;19.70;99.90;;;;;;4950623;29;20054;-83
2023/10/02 09:26:17;;;;;;;20.85;10.30;;;19.80;99.90;;;;;;4949063;28;20047;-82
2023/10/02 09:28:59;;;;;;;21.48;10.73;;;19.90;99.90;;;;;;4949974;28;20046;-83
2023/10/02 09:31:30;;;;;;;19.60;10.27;;;20.00;99.90;;;;;;4949924;29;20047;-83
2023/10/02 09:33:56;;;;;;;18.02;9.95;;;20.10;99.90;;;;;;4950069;29;20039;-83
2023/10/02 09:36:36;;;;;;;17.30;10.10;;;20.10;99.90;;;;;;4981062;28;20040;-82
2023/10/02 09:42:07;;;;;;;19.92;10.25;;;20.20;99.90;;;;;;4982563;28;20125;-82
2023/10/02 09:44:40;;;;;;;20.50;9.82;;;20.30;99.90;;;;;;4950295;28;20039;-82
2023/10/02 09:47:08;;;;;;;20.08;9.18;;;20.30;99.90;;;;;;4984086;28;20043;-83
2023/10/02 09:49:42;;;;;;;17.17;9.45;;;20.30;99.90;;;;;;4953752;29;20047;-84
2023/10/02 09:52:16;;;;;;;19.83;9.90;;;20.30;99.90;;;;;;4985964;28;20043;-83
2023/10/02 09:55:00;;;;;;;17.90;9.02;;;20.20;99.90;;;;;;4986052;28;20039;-82
2023/10/02 09:57:31;;;;;;;21.33;9.52;;;20.10;99.90;;;;;;4984742;28;20050;-82
2023/10/02 09:59:57;;;;;;;19.23;9.77;;;20.00;99.90;;;;;;4953231;28;20118;-83
2023/10/02 10:05:22;;;;;;;19.58;9.82;;;20.00;99.90;;;;;;4985640;28;20047;-83
2023/10/02 10:08:18;;;;;;;17.88;8.93;;;20.20;99.90;;;;;;4947247;29;20051;-83
2023/10/02 10:10:57;;;;;;;16.50;8.38;;;20.20;99.90;;;;;;4985449;28;20168;-83
2023/10/02 10:13:27;;;;;;;20.98;8.82;;;20.50;99.90;;;;;;4986132;28;20141;-83
2023/10/02 10:16:23;;;;;;;18.88;9.02;;;20.60;99.90;;;;;;4985321;28;20043;-83
2023/10/02 10:22:00;;;;;;;16.58;9.38;;;20.80;99.90;;;;;;4969319;28;20091;-83
2023/10/02 10:24:56;;;;;;;17.98;9.27;;;20.70;99.90;;;;;;4985758;28;20564;-83
2023/10/02 10:27:38;;;;;;;19.27;9.40;;;20.60;99.90;;;;;;4969006;28;20606;-83
2023/10/02 10:35:55;;;;;;;18.17;9.25;;;20.90;99.90;;;;;;4985043;28;20043;-83
2023/10/02 10:41:00;;;;;;;19.98;9.65;;;20.90;99.90;;;;;;4983927;28;20187;-83
2023/10/02 10:46:27;;;;;;;18.75;9.23;;;21.10;99.90;;;;;;4984882;28;20051;-83
2023/10/02 10:49:07;;;;;;;17.40;9.00;;;21.20;99.90;;;;;;4953125;28;20050;-83
2023/10/02 10:51:40;;;;;;;20.88;9.15;;;21.20;99.90;;;;;;4952536;29;20493;-83
2023/10/02 10:54:12;;;;;;;17.83;9.10;;;21.30;99.90;;;;;;4984899;28;20039;-83
2023/10/02 10:56:45;;;;;;;18.42;8.55;;;21.30;99.90;;;;;;4968492;28;20051;-83
2023/10/02 10:59:24;;;;;;;15.90;8.75;;;21.10;99.90;;;;;;4984676;28;20405;-83
2023/10/02 11:04:45;;;;;;;18.40;8.95;;;21.10;99.90;;;;;;4952621;29;20620;-83
2023/10/02 11:07:21;;;;;;;20.00;9.55;;;21.00;99.90;;;;;;4984768;28;20047;-82
2023/10/02 11:10:14;;;;;;;20.15;9.43;;;20.90;99.90;;;;;;4968430;28;20075;-83
2023/10/02 11:12:39;;;;;;;18.58;8.98;;;21.00;99.90;;;;;;4984011;28;20043;-82
2023/10/02 11:15:28;;;;;;;18.05;9.35;;;21.00;99.90;;;;;;4984134;28;20039;-82
2023/10/02 11:18:18;;;;;;;21.45;9.98;;;21.10;99.90;;;;;;4952370;29;20042;-83
2023/10/02 11:20:51;;;;;;;17.80;9.48;;;21.10;99.90;;;;;;4983391;28;20306;-83
2023/10/02 11:23:39;;;;;;;19.00;9.55;;;21.10;99.90;;;;;;4984722;28;20051;-82
2023/10/02 11:26:15;;;;;;;17.25;9.23;;;21.00;99.90;;;;;;4984117;28;20066;-83
2023/10/02 11:28:49;;;;;;;19.05;9.60;;;21.00;99.90;;;;;;4984454;28;20039;-83
2023/10/02 11:31:32;;;;;;;18.60;9.55;;;21.00;99.90;;;;;;4983479;28;20101;-83
2023/10/02 11:34:10;;;;;;;19.58;9.55;;;21.10;99.90;;;;;;4967957;28;20043;-83
2023/10/02 11:36:39;;;;;;;17.98;9.55;;;21.10;99.90;;;;;;4984007;28;20118;-83
2023/10/02 11:39:09;;;;;;;21.25;9.90;;;21.10;99.90;;;;;;4984202;28;20414;-83
2023/10/02 11:41:39;;;;;;;19.60;9.98;;;21.20;99.90;;;;;;4951821;29;20047;-83
2023/10/02 11:44:06;;;;;;;19.98;9.95;;;21.20;99.90;;;;;;4950119;29;20445;-83
2023/10/02 11:46:33;;;;;;;20.92;10.68;;;21.30;99.90;;;;;;4951545;29;20043;-83
2023/10/02 11:48:59;;;;;;;19.83;10.18;;;21.30;99.90;;;;;;4951644;28;20050;-83
2023/10/02 11:51:28;;;;;;;21.50;10.57;;;21.30;99.90;;;;;;4983630;28;20259;-83
2023/10/02 11:53:58;;;;;;;18.88;9.90;;;21.40;99.90;;;;;;4983073;28;20202;-83
2023/10/02 11:56:26;;;;;;;20.15;10.40;;;21.50;99.90;;;;;;4967446;28;20043;-83
2023/10/02 11:58:52;;;;;;;18.65;10.15;;;21.50;99.90;;;;;;4951853;29;20133;-83
2023/10/02 12:01:22;;;;;;;21.25;10.57;;;21.60;99.90;;;;;;4951044;28;20252;-83
2023/10/02 12:03:49;;;;;;;20.80;10.90;;;21.60;99.90;;;;;;4982675;28;20039;-83
2023/10/02 12:06:16;;;;;;;21.48;10.70;;;21.60;99.90;;;;;;4967356;28;20057;-83
2023/10/02 12:08:44;;;;;;;18.67;10.30;;;21.60;99.90;;;;;;4950872;28;20046;-83
2023/10/02 12:11:16;;;;;;;19.52;10.57;;;21.60;99.90;;;;;;4951458;28;20063;-83
2023/10/02 12:13:44;;;;;;;19.73;11.05;;;21.60;99.90;;;;;;4982710;28;20069;-83
2023/10/02 12:16:13;;;;;;;21.85;10.25;;;21.70;99.90;;;;;;4966706;28;20043;-83
2023/10/02 12:18:42;;;;;;;18.00;9.98;;;21.70;99.90;;;;;;4950608;28;20035;-83
2023/10/02 12:21:12;;;;;;;18.38;10.23;;;21.60;99.90;;;;;;4983391;28;20039;-83
2023/10/02 12:23:43;;;;;;;19.05;10.63;;;21.70;99.90;;;;;;4950962;29;20601;-83
2023/10/02 12:26:22;;;;;;;18.98;10.25;;;21.70;99.90;;;;;;4981178;28;20398;-83
2023/10/02 12:28:49;;;;;;;20.77;11.30;;;21.60;99.90;;;;;;4934988;29;20054;-83
2023/10/02 12:31:17;;;;;;;20.08;11.45;;;21.50;99.90;;;;;;4951104;28;20517;-82
2023/10/02 12:33:45;;;;;;;19.83;11.23;;;21.50;99.90;;;;;;4935013;29;20493;-83
2023/10/02 12:36:17;;;;;;;19.92;10.90;;;21.50;99.90;;;;;;4949889;28;20043;-83
2023/10/02 12:38:44;;;;;;;23.55;12.50;;;21.50;99.90;;;;;;4999528;28;20079;-83
2023/10/02 12:41:27;;;;;;;19.33;10.90;;;21.60;99.90;;;;;;4982487;28;20138;-83
2023/10/02 12:43:56;;;;;;;23.13;12.43;;;21.50;99.90;;;;;;4983147;28;20090;-83
2023/10/02 12:46:29;;;;;;;20.58;11.13;;;21.50;99.90;;;;;;4946935;29;20043;-83
2023/10/02 12:48:57;;;;;;;19.02;11.30;;;21.50;99.90;;;;;;4950880;28;20035;-83
2023/10/02 12:51:25;;;;;;;22.05;11.77;;;21.50;99.90;;;;;;4950712;28;20412;-83
2023/10/02 12:53:50;;;;;;;20.30;11.20;;;21.40;99.90;;;;;;4950700;29;20035;-83
2023/10/02 12:56:21;;;;;;;21.63;11.88;;;21.40;99.90;;;;;;4948784;29;20043;-83
2023/10/02 12:58:48;;;;;;;21.58;11.27;;;21.40;99.90;;;;;;4957459;28;20043;-83
2023/10/02 13:01:27;;;;;;;20.80;11.10;;;21.40;99.90;;;;;;4962224;28;20070;-83
2023/10/02 13:03:54;;;;;;;19.80;10.88;;;21.40;99.90;;;;;;4950591;28;20596;-83
2023/10/02 13:06:22;;;;;;;20.08;11.27;;;21.50;99.90;;;;;;4949192;29;21447;-83
2023/10/02 13:08:48;;;;;;;19.45;11.60;;;21.50;99.90;;;;;;4950939;28;20238;-83
2023/10/02 13:11:19;;;;;;;18.75;11.38;;;21.50;99.90;;;;;;4949443;29;20095;-83
2023/10/02 13:13:51;;;;;;;20.05;11.48;;;21.50;99.90;;;;;;4950853;28;20035;-83
2023/10/02 13:16:18;;;;;;;20.98;10.85;;;21.60;99.90;;;;;;4982076;28;20050;-83
2023/10/02 13:18:45;;;;;;;19.92;10.88;;;21.70;99.90;;;;;;4949438;29;20070;-83
2023/10/02 13:21:18;;;;;;;21.70;11.30;;;21.80;99.90;;;;;;4952347;28;20053;-83
2023/10/02 13:23:43;;;;;;;21.45;11.25;;;21.80;99.90;;;;;;4954783;28;20109;-83
2023/10/02 13:26:10;;;;;;;19.15;9.52;;;21.80;99.90;;;;;;4938095;29;20496;-83
2023/10/02 13:28:38;;;;;;;18.25;10.38;;;20.40;99.90;;;;;;4985469;28;20501;-82
2023/10/02 13:31:14;;;;;;;18.63;10.23;;;21.80;99.90;;;;;;4953932;28;20058;-83
2023/10/02 13:33:41;;;;;;;19.48;10.15;;;21.70;99.90;;;;;;4954365;28;20043;-83
2023/10/02 13:36:09;;;;;;;18.65;9.93;;;21.60;99.90;;;;;;4954150;29;20062;-83
2023/10/02 13:38:35;;;;;;;17.83;9.15;;;21.60;99.90;;;;;;4969341;28;20413;-83
2023/10/02 13:41:11;;;;;;;19.88;10.45;;;21.60;99.90;;;;;;4985299;28;20125;-83
2023/10/02 13:43:41;;;;;;;18.02;10.25;;;21.60;99.90;;;;;;4986422;28;20047;-83
2023/10/02 13:46:11;;;;;;;18.15;10.05;;;21.70;99.90;;;;;;4953601;28;20401;-83
2023/10/02 13:48:38;;;;;;;18.23;9.52;;;21.70;99.90;;;;;;4952897;28;20047;-83
2023/10/02 13:51:05;;;;;;;18.60;10.27;;;21.70;99.90;;;;;;4984152;28;20123;-83
2023/10/02 13:53:32;;;;;;;18.58;9.88;;;21.70;99.90;;;;;;4970239;28;20039;-83
2023/10/02 13:56:13;;;;;;;19.02;10.25;;;21.80;99.90;;;;;;4986034;28;20134;-83
2023/10/02 13:58:40;;;;;;;18.98;10.23;;;21.70;99.90;;;;;;4953896;29;20043;-84